Time;durP1;ratioP1;P1;durP2;ratioP2;P2;SDS_P1;SDS_P2;PMS_P1;PMS_P2;Temp;Humidity;BMP_temperature;BMP_pressure;BME280_temperature;BME280_humidity;BME280_pressure;Samples;Min_cycle;Max_cycle;Signal;HPM_P1;HPM_P2
2021/12/24 00:01:58;;;;;;;4.40;3.20;;;-2.30;99.90;-3.10;96025.00;;;;5043066;28;20462;-77
2021/12/24 00:04:59;;;;;;;4.60;3.43;;;-2.30;99.90;-3.10;96018.00;;;;5039406;28;20471;-77
2021/12/24 00:07:48;;;;;;;9.67;4.30;;;-2.30;99.90;-3.10;96008.00;;;;5038556;28;20966;-77
2021/12/24 00:10:38;;;;;;;7.43;4.87;;;-2.30;99.90;-2.90;96005.00;;;;5036399;28;20818;-77
2021/12/24 00:13:34;;;;;;;4.83;3.90;;;-2.30;99.90;-3.00;96007.00;;;;5033386;28;20549;-77
2021/12/24 00:16:26;;;;;;;9.17;4.73;;;-2.20;99.90;-2.90;96008.00;;;;5039133;28;20439;-77
2021/12/24 00:19:21;;;;;;;5.67;4.03;;;-2.20;99.90;-2.60;96001.00;;;;5035100;28;20428;-77
2021/12/24 00:22:29;;;;;;;6.60;3.70;;;-2.10;99.90;-2.50;95993.00;;;;5044472;28;20826;-77
2021/12/24 00:37:48;;;;;;;4.97;4.33;;;-2.10;99.90;-2.90;95992.00;;;;5044203;28;20432;-77
2021/12/24 00:40:42;;;;;;;8.67;3.83;;;-2.10;99.90;-2.80;95990.00;;;;5042922;28;20449;-77
2021/12/24 00:43:31;;;;;;;5.70;4.97;;;-2.10;99.90;-2.70;95993.00;;;;5044634;28;20437;-77
2021/12/24 00:46:20;;;;;;;3.10;2.30;;;-2.10;99.90;-2.70;95974.00;;;;5043356;28;20839;-77
2021/12/24 00:49:10;;;;;;;5.87;4.57;;;-2.00;99.90;-2.50;95986.00;;;;5044113;28;20443;-77
2021/12/24 00:52:18;;;;;;;7.17;4.20;;;-1.90;99.90;-2.60;95984.00;;;;5043088;28;20844;-77
2021/12/24 00:55:09;;;;;;;9.60;5.10;;;-1.90;99.90;-2.40;95987.00;;;;5040897;28;20438;-78
2021/12/24 00:58:01;;;;;;;7.63;4.57;;;-1.90;99.90;-2.40;95985.00;;;;5045441;28;21085;-77
2021/12/24 01:00:51;;;;;;;5.70;4.33;;;-1.80;99.90;-2.60;95991.00;;;;5040807;28;20444;-76
2021/12/24 01:03:40;;;;;;;7.80;5.23;;;-1.80;99.90;-2.70;95978.00;;;;5045050;28;20804;-75
2021/12/24 01:06:30;;;;;;;8.00;5.33;;;-1.90;99.90;-3.00;95973.00;;;;5044982;28;20475;-77
2021/12/24 01:09:20;;;;;;;9.03;5.63;;;-1.70;99.90;-2.60;95987.00;;;;5035680;28;20428;-76
2021/12/24 01:12:10;;;;;;;4.37;3.10;;;-2.00;99.90;-2.90;95979.00;;;;5047373;28;20494;-77
2021/12/24 01:14:59;;;;;;;4.27;3.87;;;-2.00;99.90;-2.70;95996.00;;;;5047917;28;20428;-77
2021/12/24 01:17:55;;;;;;;4.93;4.13;;;-2.00;99.90;-2.60;95994.00;;;;5048278;28;20930;-78
2021/12/24 01:20:48;;;;;;;2.97;2.67;;;-2.00;99.90;-2.90;95996.00;;;;5048216;28;20439;-77
2021/12/24 01:23:45;;;;;;;8.93;1.93;;;-2.00;99.90;-2.90;96012.00;;;;5047967;28;20442;-77
2021/12/24 01:26:40;;;;;;;5.77;4.00;;;-2.00;99.90;-2.70;96007.00;;;;5047922;28;20985;-77
2021/12/24 01:29:48;;;;;;;8.63;4.10;;;-2.00;99.90;-2.60;96012.00;;;;5048070;28;20431;-77
2021/12/24 01:39:02;;;;;;;4.23;3.83;;;-2.00;99.90;-2.60;96009.00;;;;5047491;28;20891;-77
2021/12/24 01:44:59;;;;;;;5.37;4.37;;;-1.90;99.90;-2.50;95991.00;;;;5047128;28;20431;-77
2021/12/24 01:47:49;;;;;;;5.73;4.60;;;-1.90;99.90;-2.50;95994.00;;;;5048682;28;20505;-76
2021/12/24 01:50:42;;;;;;;7.50;3.90;;;-1.90;99.90;-2.50;95992.00;;;;5048027;28;20968;-77
2021/12/24 01:53:34;;;;;;;7.67;4.90;;;-1.90;99.90;-2.40;95984.00;;;;5045991;28;20446;-77
2021/12/24 01:56:24;;;;;;;7.53;4.63;;;-1.90;99.90;-2.60;95987.00;;;;5048542;28;20435;-76
2021/12/24 01:59:14;;;;;;;2.80;2.63;;;-1.90;99.90;-3.00;95984.00;;;;5045751;28;20446;-76
2021/12/24 02:02:03;;;;;;;5.20;3.77;;;-1.90;99.90;-2.80;95981.00;;;;5042299;28;20466;-76
2021/12/24 02:04:52;;;;;;;6.10;4.97;;;-2.00;99.90;-2.50;95953.00;;;;5047244;28;20509;-77
2021/12/24 02:07:42;;;;;;;0.90;0.90;;;-2.00;99.90;-2.60;95973.00;;;;5046674;28;20525;-77
2021/12/24 02:10:31;;;;;;;7.03;4.43;;;-2.00;99.90;-2.50;95985.00;;;;5033009;28;20489;-77
2021/12/24 02:13:22;;;;;;;7.17;4.07;;;-1.90;99.90;-2.30;95972.00;;;;5046311;28;20428;-77
2021/12/24 02:16:19;;;;;;;5.27;4.43;;;-1.80;99.90;-2.60;95971.00;;;;5045605;28;20423;-76
2021/12/24 02:28:45;;;;;;;5.93;4.27;;;-1.90;99.90;-2.70;95964.00;;;;4974156;28;20848;-77
2021/12/24 02:31:35;;;;;;;6.50;4.43;;;-1.90;99.90;-2.70;95975.00;;;;4974992;28;20458;-77
2021/12/24 02:34:24;;;;;;;6.80;4.17;;;-1.90;99.90;-2.60;95961.00;;;;5031343;28;20455;-77
2021/12/24 02:37:13;;;;;;;4.43;4.03;;;-2.00;99.90;-2.60;95956.00;;;;5042595;28;20425;-77
2021/12/24 02:40:04;;;;;;;7.50;4.00;;;-1.90;99.90;-2.80;95948.00;;;;5038391;28;20436;-77
2021/12/24 02:42:55;;;;;;;9.27;4.67;;;-2.00;99.90;-2.70;95950.00;;;;5041868;28;20431;-77
2021/12/24 02:45:47;;;;;;;8.40;4.03;;;-2.00;99.90;-3.00;95930.00;;;;5039952;28;20796;-77
2021/12/24 02:49:01;;;;;;;7.60;4.63;;;-2.00;99.90;-2.70;95935.00;;;;5046241;28;20930;-77
2021/12/24 02:55:12;;;;;;;5.53;4.07;;;-2.10;99.90;-2.60;95950.00;;;;4984594;28;20452;-77
2021/12/24 02:58:01;;;;;;;5.27;4.37;;;-2.10;99.90;-2.50;95947.00;;;;5047227;28;21004;-77
2021/12/24 03:00:51;;;;;;;7.43;5.37;;;-2.00;99.90;-2.40;95941.00;;;;5044589;28;20454;-77
2021/12/24 03:03:40;;;;;;;6.80;4.63;;;-2.00;99.90;-2.40;95939.00;;;;5041861;28;20937;-77
2021/12/24 03:06:32;;;;;;;5.93;4.67;;;-1.90;99.90;-2.70;95933.00;;;;5045734;28;20856;-77
2021/12/24 03:09:22;;;;;;;6.17;5.00;;;-2.00;99.90;-2.60;95921.00;;;;5032108;28;20440;-77
2021/12/24 03:12:13;;;;;;;5.33;4.50;;;-2.00;99.90;-2.60;95935.00;;;;5045428;28;20451;-77
2021/12/24 03:15:02;;;;;;;7.27;4.30;;;-2.00;99.90;-2.70;95924.00;;;;5044890;28;20428;-77
2021/12/24 03:17:55;;;;;;;5.20;4.10;;;-2.00;99.90;-2.90;95938.00;;;;5046556;28;20806;-77
2021/12/24 03:20:44;;;;;;;4.10;3.73;;;-2.10;99.90;-3.00;95936.00;;;;5035326;28;20459;-76
2021/12/24 03:23:37;;;;;;;7.43;4.83;;;-2.10;99.90;-2.80;95927.00;;;;5044991;28;20992;-76
2021/12/24 03:26:26;;;;;;;5.53;4.23;;;-2.20;99.90;-2.90;95935.00;;;;5047627;28;20467;-77
2021/12/24 03:29:18;;;;;;;8.47;5.43;;;-2.20;99.90;-2.80;95920.00;;;;5047873;28;20432;-77
2021/12/24 03:32:09;;;;;;;7.20;4.10;;;-2.20;99.90;-2.80;95920.00;;;;5038272;28;20826;-77
2021/12/24 03:34:58;;;;;;;6.80;4.83;;;-2.20;99.90;-2.80;95909.00;;;;5045232;28;20439;-77
2021/12/24 03:37:47;;;;;;;10.20;4.50;;;-2.20;99.90;-3.00;95910.00;;;;5046390;28;20432;-77
2021/12/24 03:40:36;;;;;;;5.17;4.00;;;-2.20;99.90;-3.20;95909.00;;;;5046458;28;20439;-77
2021/12/24 03:43:26;;;;;;;5.80;4.17;;;-2.30;99.90;-3.20;95913.00;;;;5045021;28;20427;-77
2021/12/24 03:46:20;;;;;;;4.73;3.90;;;-2.40;99.90;-3.20;95887.00;;;;5045036;28;20443;-77
2021/12/24 03:49:18;;;;;;;4.37;3.97;;;-2.40;99.90;-3.20;95901.00;;;;5045757;28;20439;-77
2021/12/24 03:52:23;;;;;;;5.77;4.03;;;-2.40;99.90;-3.00;95899.00;;;;5045926;28;20451;-77
2021/12/24 03:55:11;;;;;;;6.13;5.03;;;-2.40;99.90;-2.90;95896.00;;;;5045453;28;20435;-77
2021/12/24 03:58:00;;;;;;;5.33;4.83;;;-2.40;99.90;-2.90;95897.00;;;;5034800;28;20435;-77
2021/12/24 04:00:49;;;;;;;4.67;4.07;;;-2.40;99.90;-2.90;95901.00;;;;5044256;28;20449;-77
2021/12/24 04:03:40;;;;;;;6.23;4.30;;;-2.30;99.90;-3.00;95887.00;;;;5044998;28;20431;-76
2021/12/24 04:06:29;;;;;;;10.20;5.27;;;-2.30;99.90;-2.90;95886.00;;;;5045001;28;20439;-77
2021/12/24 04:09:18;;;;;;;5.00;4.60;;;-2.40;99.90;-2.90;95884.00;;;;5024451;28;20428;-77
2021/12/24 04:12:08;;;;;;;4.83;4.27;;;-2.40;99.90;-3.00;95884.00;;;;5042622;28;20946;-77
2021/12/24 04:14:56;;;;;;;7.20;4.50;;;-2.40;99.90;-2.90;95881.00;;;;5044183;28;20423;-77
2021/12/24 04:17:46;;;;;;;9.00;4.43;;;-2.40;99.90;-3.00;95889.00;;;;5045266;28;20423;-77
2021/12/24 04:26:49;;;;;;;7.77;4.80;;;-2.50;99.90;-3.20;95888.00;;;;5044268;28;20489;-76
2021/12/24 04:29:39;;;;;;;8.50;5.17;;;-2.60;99.90;-3.30;95884.00;;;;5045493;28;20427;-77
2021/12/24 04:32:39;;;;;;;9.27;4.37;;;-2.60;99.90;-3.30;95892.00;;;;5045431;28;20461;-77
2021/12/24 04:35:40;;;;;;;6.83;3.87;;;-2.70;99.90;-3.40;95878.00;;;;5045202;28;20415;-77
2021/12/24 04:38:39;;;;;;;4.93;4.10;;;-2.70;99.90;-3.60;95882.00;;;;5045802;28;20431;-76
2021/12/24 04:51:12;;;;;;;3.93;3.60;;;-2.90;99.90;-3.60;95862.00;;;;5038549;28;20471;-76
2021/12/24 05:03:30;;;;;;;5.33;4.17;;;-3.00;99.90;-3.50;95859.00;;;;5043122;28;20471;-77
2021/12/24 05:06:30;;;;;;;5.80;3.50;;;-2.90;99.90;-3.60;95857.00;;;;5042006;28;20454;-77
2021/12/24 05:09:24;;;;;;;6.47;4.40;;;-2.90;99.90;-3.80;95855.00;;;;5029499;28;20440;-76
2021/12/24 05:12:13;;;;;;;4.97;4.37;;;-3.00;99.90;-3.90;95851.00;;;;5044957;28;20443;-76
2021/12/24 05:15:02;;;;;;;5.67;4.43;;;-3.00;99.90;-4.00;95861.00;;;;5042878;28;20790;-77
2021/12/24 05:18:05;;;;;;;8.20;3.87;;;-3.10;99.90;-3.70;95866.00;;;;5044240;28;20599;-77
2021/12/24 05:24:01;;;;;;;4.70;4.17;;;-3.10;99.90;-3.80;95855.00;;;;5033247;28;20876;-76
2021/12/24 05:26:55;;;;;;;5.00;3.33;;;-3.10;99.90;-3.80;95844.00;;;;5040295;28;20811;-76
2021/12/24 05:29:44;;;;;;;8.27;4.10;;;-3.00;99.90;-3.80;95839.00;;;;5026855;28;20440;-76
2021/12/24 05:32:33;;;;;;;4.37;3.97;;;-3.00;99.90;-3.60;95855.00;;;;5024923;28;20446;-76
2021/12/24 05:35:22;;;;;;;5.53;3.93;;;-3.00;99.90;-3.60;95847.00;;;;5026365;28;20442;-76
2021/12/24 05:38:11;;;;;;;6.00;3.83;;;-3.00;99.90;-3.90;95853.00;;;;5038046;28;20436;-76
2021/12/24 05:41:00;;;;;;;10.73;4.53;;;-3.10;99.90;-3.90;95854.00;;;;5028112;28;20471;-76
2021/12/24 05:43:52;;;;;;;3.87;3.37;;;-3.10;99.90;-3.80;95846.00;;;;5038052;28;20926;-77
2021/12/24 05:46:41;;;;;;;4.67;3.53;;;-3.10;99.90;-3.60;95845.00;;;;5042828;28;20427;-76
2021/12/24 05:49:30;;;;;;;3.93;3.43;;;-3.10;99.90;-3.60;95844.00;;;;5043226;28;20439;-75
2021/12/24 05:52:18;;;;;;;3.80;3.20;;;-3.10;99.90;-3.80;95840.00;;;;5042398;28;20450;-76
2021/12/24 05:55:08;;;;;;;3.53;2.73;;;-3.00;99.90;-4.10;95827.00;;;;5042306;28;20442;-76
2021/12/24 05:57:58;;;;;;;5.83;3.80;;;-3.10;99.90;-3.70;95832.00;;;;5039476;28;20969;-76
2021/12/24 06:00:48;;;;;;;4.90;3.57;;;-3.10;99.90;-3.50;95829.00;;;;5034253;28;20481;-76
2021/12/24 06:03:45;;;;;;;3.73;3.00;;;-3.00;99.90;-3.50;95830.00;;;;5039202;28;20788;-76
2021/12/24 06:06:34;;;;;;;7.80;4.00;;;-3.00;99.90;-3.70;95822.00;;;;5045177;28;20430;-76
2021/12/24 06:09:23;;;;;;;7.73;5.10;;;-2.90;99.90;-3.80;95827.00;;;;5039642;28;20468;-75
2021/12/24 06:12:12;;;;;;;8.53;4.63;;;-3.00;99.90;-3.70;95807.00;;;;5046357;28;20443;-76
2021/12/24 06:15:04;;;;;;;8.93;6.60;;;-3.00;99.90;-3.50;95819.00;;;;5046679;28;20431;-76
2021/12/24 06:17:58;;;;;;;10.90;4.97;;;-3.00;99.90;-3.80;95822.00;;;;5047110;28;21048;-74
2021/12/24 06:20:48;;;;;;;7.37;4.50;;;-3.00;99.90;-3.90;95817.00;;;;5035422;28;20435;-74
2021/12/24 06:23:39;;;;;;;6.70;3.43;;;-3.00;99.90;-4.20;95811.00;;;;5031284;28;20425;-74
2021/12/24 06:26:28;;;;;;;3.40;2.67;;;-3.20;99.90;-4.30;95809.00;;;;5038853;28;20792;-74
2021/12/24 06:29:18;;;;;;;2.87;2.63;;;-3.30;99.90;-4.30;95807.00;;;;5046980;28;20982;-74
2021/12/24 06:32:08;;;;;;;4.13;2.57;;;-3.30;99.90;-4.10;95819.00;;;;5047770;28;20803;-75
2021/12/24 06:34:58;;;;;;;3.73;2.80;;;-3.30;99.90;-3.80;95829.00;;;;5023013;28;20923;-74
2021/12/24 06:37:47;;;;;;;4.10;3.40;;;-3.30;99.90;-3.70;95835.00;;;;5001350;28;20441;-74
2021/12/24 06:40:37;;;;;;;2.70;2.50;;;-3.20;99.90;-3.80;95824.00;;;;5042178;28;20439;-74
2021/12/24 06:43:28;;;;;;;4.17;3.10;;;-3.20;99.90;-3.90;95819.00;;;;5031253;28;20477;-74
2021/12/24 06:46:17;;;;;;;3.03;2.83;;;-3.20;99.90;-3.70;95825.00;;;;5025326;28;20435;-74
2021/12/24 06:49:06;;;;;;;8.30;3.70;;;-3.10;99.90;-3.60;95818.00;;;;5027853;28;20572;-74
2021/12/24 06:51:56;;;;;;;5.30;3.90;;;-3.10;99.90;-3.50;95831.00;;;;5035689;28;20459;-74
2021/12/24 06:54:45;;;;;;;24.00;11.23;;;-3.10;99.90;-3.40;95827.00;;;;5032666;28;20445;-74
2021/12/24 06:57:34;;;;;;;4.83;4.07;;;-3.00;99.90;-3.60;95827.00;;;;5024495;28;20439;-74
2021/12/24 07:00:25;;;;;;;3.47;2.53;;;-2.90;99.90;-3.50;95829.00;;;;5025162;28;20444;-74
2021/12/24 07:03:14;;;;;;;6.03;5.43;;;-2.90;99.90;-3.50;95825.00;;;;5034269;28;20432;-74
2021/12/24 07:06:28;;;;;;;6.13;4.63;;;-2.80;99.90;-3.30;95811.00;;;;5033086;28;20447;-76
2021/12/24 07:09:19;;;;;;;8.87;8.07;;;-2.80;99.90;-3.70;95816.00;;;;5031469;28;20472;-80
2021/12/24 07:12:11;;;;;;;6.93;4.17;;;-2.80;99.90;-3.70;95817.00;;;;5040163;28;20454;-80
2021/12/24 07:15:03;;;;;;;2.53;1.73;;;-2.80;99.90;-3.90;95817.00;;;;5034541;28;20436;-80
2021/12/24 07:17:52;;;;;;;4.00;3.70;;;-2.90;99.90;-3.50;95820.00;;;;5034978;28;20450;-81
2021/12/24 07:20:41;;;;;;;5.70;4.07;;;-2.80;99.90;-3.20;95810.00;;;;5036569;28;20456;-80
2021/12/24 07:23:30;;;;;;;6.93;3.67;;;-2.80;99.90;-3.30;95812.00;;;;5031469;28;20439;-80
2021/12/24 07:26:21;;;;;;;4.50;2.73;;;-2.70;99.90;-3.00;95800.00;;;;5031073;28;20500;-77
2021/12/24 07:29:10;;;;;;;3.27;3.03;;;-2.60;99.90;-3.00;95814.00;;;;5026196;28;20463;-78
2021/12/24 07:31:59;;;;;;;3.57;2.60;;;-2.50;99.90;-3.60;95805.00;;;;5028982;28;20460;-80
2021/12/24 07:34:48;;;;;;;7.30;4.73;;;-2.60;99.90;-3.40;95800.00;;;;5049022;28;20433;-78
2021/12/24 07:37:39;;;;;;;9.13;5.27;;;-2.60;99.90;-3.30;95812.00;;;;5036837;28;20936;-75
2021/12/24 07:40:28;;;;;;;4.57;4.07;;;-2.60;99.90;-2.90;95814.00;;;;5034968;28;20454;-76
2021/12/24 07:43:18;;;;;;;4.83;3.80;;;-2.50;99.90;-2.60;95803.00;;;;5030724;28;20486;-76
2021/12/24 07:46:07;;;;;;;8.93;5.10;;;-2.40;99.90;-2.90;95787.00;;;;5030075;28;20428;-76
2021/12/24 07:49:11;;;;;;;3.83;1.80;;;-1.60;99.90;-3.30;95779.00;;;;5032224;28;20550;-75
2021/12/24 07:52:09;;;;;;;3.33;3.07;;;-2.30;99.90;-3.30;95790.00;;;;5038111;28;20468;-74
2021/12/24 07:54:59;;;;;;;4.57;3.60;;;-2.40;99.90;-3.30;95775.00;;;;5030558;28;20444;-76
2021/12/24 07:57:57;;;;;;;4.43;2.70;;;-2.50;99.90;-3.30;95780.00;;;;5030655;28;20815;-76
2021/12/24 08:00:50;;;;;;;4.33;3.73;;;-2.50;99.90;-2.90;95768.00;;;;5030539;28;20843;-76
2021/12/24 08:03:39;;;;;;;5.50;3.20;;;-2.40;99.90;-2.70;95771.00;;;;5035944;28;20436;-76
2021/12/24 08:06:28;;;;;;;5.17;3.10;;;-2.40;99.90;-2.80;95758.00;;;;5031875;28;20435;-76
2021/12/24 08:09:17;;;;;;;4.00;3.03;;;-2.30;99.90;-2.60;95762.00;;;;5032251;28;20466;-76
2021/12/24 08:12:09;;;;;;;4.10;3.10;;;-2.20;99.90;-2.60;95761.00;;;;5031472;28;20466;-77
2021/12/24 08:14:58;;;;;;;9.10;3.30;;;-2.10;99.90;-2.60;95772.00;;;;5023800;28;20421;-77
2021/12/24 08:17:48;;;;;;;3.63;2.87;;;-2.10;99.90;-2.30;95766.00;;;;5035945;28;20434;-77
2021/12/24 08:20:37;;;;;;;3.10;2.80;;;-2.00;99.90;-2.30;95758.00;;;;5038128;28;20477;-76
2021/12/24 08:23:26;;;;;;;4.50;3.37;;;-1.90;99.90;-2.50;95765.00;;;;5046917;28;20435;-77
2021/12/24 08:26:16;;;;;;;4.83;3.10;;;-1.80;99.90;-2.10;95775.00;;;;5033053;28;20450;-77
2021/12/24 08:29:05;;;;;;;6.17;5.43;;;-1.80;99.90;-2.10;95774.00;;;;5030476;28;20471;-77
2021/12/24 08:31:54;;;;;;;20.90;16.27;;;-1.70;99.90;-2.30;95781.00;;;;5041693;28;20831;-75
2021/12/24 08:34:44;;;;;;;22.13;15.17;;;-1.70;99.90;-2.10;95767.00;;;;5045448;28;20440;-76
2021/12/24 08:37:33;;;;;;;9.57;8.03;;;-1.60;99.90;-1.70;95784.00;;;;5041849;28;20941;-76
2021/12/24 08:40:22;;;;;;;10.70;9.60;;;-1.60;99.90;-1.60;95772.00;;;;5042826;28;20434;-78
2021/12/24 08:43:11;;;;;;;15.10;11.53;;;-1.50;99.90;-1.40;95784.00;;;;5045649;28;20953;-75
2021/12/24 08:46:00;;;;;;;12.67;10.90;;;-1.30;99.90;-1.60;95760.00;;;;5044071;28;20436;-76
2021/12/24 08:48:49;;;;;;;5.50;3.57;;;-1.40;99.90;-1.90;95759.00;;;;5044224;28;20459;-76
2021/12/24 08:51:39;;;;;;;3.57;2.93;;;-1.20;99.90;-2.20;95770.00;;;;5040585;28;20861;-74
2021/12/24 08:54:28;;;;;;;3.37;2.47;;;-1.20;99.90;-1.80;95762.00;;;;5040699;28;20962;-75
2021/12/24 08:57:17;;;;;;;2.30;1.53;;;-1.20;99.90;-1.70;95773.00;;;;5044220;28;20825;-74
2021/12/24 09:00:10;;;;;;;2.93;2.60;;;-1.20;99.90;-2.10;95770.00;;;;5043487;28;20980;-74
2021/12/24 09:03:01;;;;;;;4.27;2.93;;;-1.20;99.90;-1.60;95764.00;;;;5034101;28;20446;-73
2021/12/24 09:05:50;;;;;;;4.53;3.30;;;-1.10;99.90;-1.00;95785.00;;;;5039067;28;20428;-74
2021/12/24 09:08:42;;;;;;;11.20;7.80;;;-0.90;99.90;-1.10;95768.00;;;;5043948;28;20453;-74
2021/12/24 09:11:31;;;;;;;4.63;4.23;;;-0.80;99.90;-1.10;95765.00;;;;5045566;28;20451;-79
2021/12/24 09:14:19;;;;;;;3.97;2.77;;;-0.70;99.90;-1.10;95763.00;;;;5044438;28;20432;-75
2021/12/24 09:17:08;;;;;;;4.37;3.97;;;-0.60;99.90;-1.20;95749.00;;;;5043951;28;20949;-74
2021/12/24 09:19:58;;;;;;;3.80;3.50;;;-0.60;99.90;-0.90;95766.00;;;;5044644;28;20808;-75
2021/12/24 09:22:48;;;;;;;4.63;2.93;;;-0.50;99.90;-1.10;95760.00;;;;5043442;28;20416;-73
2021/12/24 09:25:40;;;;;;;3.73;2.10;;;-0.40;99.90;-1.30;95749.00;;;;5043520;28;20427;-74
2021/12/24 09:28:29;;;;;;;5.33;2.80;;;-0.50;99.90;-1.20;95747.00;;;;5044371;28;20416;-76
2021/12/24 09:31:17;;;;;;;6.60;2.70;;;-0.60;99.90;-0.80;95755.00;;;;5043126;28;20540;-73
2021/12/24 09:34:06;;;;;;;4.33;2.57;;;-0.40;99.90;-0.40;95749.00;;;;5050071;28;20924;-73
2021/12/24 09:36:56;;;;;;;5.50;4.30;;;-0.30;99.90;-0.10;95749.00;;;;5038338;28;20451;-76
2021/12/24 09:39:44;;;;;;;2.87;2.67;;;-0.20;99.90;-0.30;95745.00;;;;5048263;28;20815;-77
2021/12/24 09:42:35;;;;;;;3.60;2.70;;;0.10;99.90;0.00;95746.00;;;;5047709;28;20466;-74
2021/12/24 09:45:24;;;;;;;8.30;4.27;;;0.20;99.90;0.30;95749.00;;;;5046988;28;20442;-76
2021/12/24 09:48:37;;;;;;;11.30;4.70;;;0.30;99.90;0.40;95736.00;;;;5048573;28;20809;-75
2021/12/24 09:51:27;;;;;;;6.80;4.03;;;0.50;99.90;0.50;95743.00;;;;5048381;28;20451;-75
2021/12/24 09:54:19;;;;;;;4.43;3.77;;;0.70;99.90;0.60;95745.00;;;;5048111;28;20442;-75
2021/12/24 09:57:08;;;;;;;4.27;3.10;;;0.80;99.90;1.10;95735.00;;;;5041209;28;20446;-76
2021/12/24 09:59:58;;;;;;;4.70;3.27;;;1.00;99.90;1.40;95731.00;;;;5028692;28;20465;-74
2021/12/24 10:02:52;;;;;;;7.47;3.60;;;1.20;99.90;1.50;95725.00;;;;5014269;28;20424;-74
2021/12/24 10:05:43;;;;;;;6.13;3.63;;;1.50;99.90;1.20;95714.00;;;;5017138;28;20802;-76
2021/12/24 10:08:34;;;;;;;5.17;3.13;;;1.50;99.90;1.20;95705.00;;;;5007821;28;20859;-76
2021/12/24 10:11:28;;;;;;;5.90;3.50;;;1.60;99.90;1.60;95703.00;;;;5021927;28;20923;-78
2021/12/24 10:14:19;;;;;;;7.43;4.47;;;1.70;99.90;2.00;95699.00;;;;5028716;28;20447;-77
2021/12/24 10:17:17;;;;;;;7.10;5.90;;;1.90;99.90;2.20;95696.00;;;;5019574;28;21335;-76
2021/12/24 10:20:14;;;;;;;13.57;6.73;;;2.00;99.90;2.00;95696.00;;;;5018288;28;20456;-74
2021/12/24 10:23:03;;;;;;;4.90;3.47;;;2.20;99.90;1.50;95684.00;;;;5026325;28;21020;-74
2021/12/24 10:25:52;;;;;;;7.30;3.83;;;2.20;99.90;1.80;95683.00;;;;5023874;28;20894;-74
2021/12/24 10:28:54;;;;;;;7.80;4.37;;;2.20;99.90;2.10;95693.00;;;;5019472;28;21518;-73
2021/12/24 10:31:46;;;;;;;7.27;5.20;;;2.20;99.90;2.10;95688.00;;;;5022100;28;20586;-76
2021/12/24 10:34:38;;;;;;;6.37;4.93;;;2.30;99.90;2.50;95686.00;;;;5023277;28;20436;-77
2021/12/24 10:37:28;;;;;;;10.23;4.13;;;2.40;99.90;2.50;95682.00;;;;5021829;28;20469;-77
2021/12/24 10:40:17;;;;;;;16.57;4.93;;;2.50;99.90;2.90;95681.00;;;;5018583;28;20432;-77
2021/12/24 10:43:07;;;;;;;8.43;3.97;;;2.70;99.90;3.10;95666.00;;;;5019120;28;20520;-77
2021/12/24 10:46:13;;;;;;;9.20;4.43;;;2.90;99.90;3.40;95677.00;;;;5019921;28;20624;-77
2021/12/24 10:49:16;;;;;;;6.13;4.60;;;3.10;99.90;3.50;95677.00;;;;5022822;28;20454;-76
2021/12/24 10:52:27;;;;;;;6.13;3.90;;;3.80;99.90;3.40;95692.00;;;;5020647;28;20521;-76
2021/12/24 10:55:19;;;;;;;6.20;4.60;;;4.00;99.90;3.70;95671.00;;;;5020569;28;20556;-76
2021/12/24 10:58:16;;;;;;;8.33;4.97;;;4.10;99.90;3.80;95670.00;;;;5022305;28;20222;-75
2021/12/24 11:01:07;;;;;;;11.73;6.47;;;4.20;99.90;4.50;95667.00;;;;5026634;28;20224;-75
2021/12/24 11:03:56;;;;;;;7.50;4.50;;;4.50;99.90;3.80;95660.00;;;;5025844;28;20208;-76
2021/12/24 11:06:51;;;;;;;7.07;4.50;;;4.70;99.90;4.20;95643.00;;;;5017602;28;20207;-76
2021/12/24 11:10:13;;;;;;;7.23;4.27;;;4.80;99.90;4.40;95643.00;;;;5018740;28;21119;-76
2021/12/24 11:13:09;;;;;;;10.60;4.63;;;5.10;99.90;5.40;95644.00;;;;5019347;28;21005;-77
2021/12/24 11:16:02;;;;;;;7.57;4.93;;;5.40;99.90;6.00;95644.00;;;;5017707;28;20255;-77
2021/12/24 11:18:57;;;;;;;9.73;6.63;;;5.80;99.90;6.00;95647.00;;;;5021219;28;20198;-77
2021/12/24 11:21:46;;;;;;;6.50;4.43;;;6.30;99.90;6.30;95636.00;;;;5032105;28;20233;-76
2021/12/24 11:24:35;;;;;;;7.50;5.07;;;6.60;99.90;6.40;95641.00;;;;5029614;28;20196;-76
2021/12/24 11:27:25;;;;;;;9.53;4.30;;;6.90;99.90;6.30;95637.00;;;;5038247;28;20211;-77
2021/12/24 11:30:15;;;;;;;39.07;22.03;;;7.00;98.90;6.80;95649.00;;;;5034053;28;20225;-77
2021/12/24 11:33:05;;;;;;;30.97;24.37;;;7.10;98.70;7.20;95645.00;;;;5034819;28;20212;-77
2021/12/24 11:35:56;;;;;;;10.10;5.20;;;7.40;98.40;6.20;95632.00;;;;5031291;28;20201;-78
2021/12/24 11:38:48;;;;;;;5.77;4.87;;;7.40;95.50;6.30;95629.00;;;;5040805;28;20632;-77
2021/12/24 11:41:39;;;;;;;10.07;5.60;;;7.20;95.80;6.50;95644.00;;;;5035871;28;20254;-77
2021/12/24 11:44:29;;;;;;;6.23;5.07;;;7.20;95.10;6.40;95633.00;;;;5036919;28;20204;-77
2021/12/24 11:47:18;;;;;;;9.10;5.50;;;6.30;94.60;5.50;95632.00;;;;5039249;28;20589;-74
2021/12/24 11:50:09;;;;;;;4.90;4.03;;;6.90;95.00;6.10;95620.00;;;;5027423;28;20223;-76
2021/12/24 11:53:01;;;;;;;4.40;4.00;;;6.80;95.70;6.20;95609.00;;;;5037550;28;20204;-74
2021/12/24 11:55:52;;;;;;;7.27;3.83;;;6.70;95.80;6.90;95615.00;;;;5037027;28;20201;-78
2021/12/24 11:58:46;;;;;;;4.67;4.07;;;6.90;96.20;6.90;95626.00;;;;5033674;28;20200;-79
2021/12/24 12:01:43;;;;;;;7.97;4.23;;;7.20;95.20;6.30;95633.00;;;;5034435;28;20220;-76
2021/12/24 12:04:31;;;;;;;5.43;4.40;;;7.30;93.90;6.20;95631.00;;;;5038678;28;20204;-74
2021/12/24 12:07:25;;;;;;;6.07;4.40;;;7.10;93.90;6.70;95624.00;;;;5029804;28;20213;-77
2021/12/24 12:10:50;;;;;;;6.00;3.93;;;7.00;94.20;7.10;95621.00;;;;5025704;28;20217;-77
2021/12/24 12:13:46;;;;;;;8.60;4.93;;;7.10;94.60;7.30;95629.00;;;;5032971;28;20687;-76
2021/12/24 12:16:52;;;;;;;7.13;4.57;;;7.30;94.70;7.00;95612.00;;;;5029784;28;20209;-77
2021/12/24 12:19:46;;;;;;;10.20;5.53;;;7.40;94.00;6.50;95615.00;;;;5020920;28;20204;-76
2021/12/24 12:22:54;;;;;;;10.00;6.20;;;7.20;93.80;6.30;95608.00;;;;5028395;28;20212;-76
2021/12/24 12:25:43;;;;;;;11.03;7.27;;;7.00;94.40;6.50;95607.00;;;;5035676;28;20203;-77
2021/12/24 12:28:32;;;;;;;7.00;4.87;;;6.80;95.00;6.50;95605.00;;;;5034564;28;20206;-77
2021/12/24 12:31:23;;;;;;;7.67;4.07;;;6.80;95.40;6.50;95594.00;;;;5029350;28;20237;-74
2021/12/24 12:34:53;;;;;;;5.40;4.13;;;6.80;95.10;6.80;95603.00;;;;5025442;28;20207;-75
2021/12/24 12:37:46;;;;;;;5.23;3.47;;;6.90;94.90;6.70;95608.00;;;;5029244;28;20203;-75
2021/12/24 12:40:36;;;;;;;9.97;6.30;;;7.00;95.00;6.20;95609.00;;;;5028760;28;20220;-77
2021/12/24 12:43:26;;;;;;;12.03;5.20;;;6.80;95.70;6.60;95607.00;;;;5026505;28;20205;-77
2021/12/24 12:46:23;;;;;;;9.17;5.10;;;6.70;96.00;6.40;95608.00;;;;5032776;28;20230;-75
2021/12/24 12:49:16;;;;;;;11.53;5.83;;;6.80;96.00;6.20;95606.00;;;;5031725;28;20310;-78
2021/12/24 12:52:13;;;;;;;7.83;4.20;;;6.70;96.40;6.20;95607.00;;;;5030725;28;20220;-76
2021/12/24 12:55:02;;;;;;;6.47;3.20;;;6.70;96.50;5.40;95600.00;;;;5027871;28;20197;-76
2021/12/24 12:57:51;;;;;;;6.30;3.50;;;6.50;96.90;5.20;95601.00;;;;5026552;28;20204;-77
2021/12/24 13:00:42;;;;;;;4.53;2.77;;;6.20;97.90;5.30;95616.00;;;;5030381;28;20230;-77
2021/12/24 13:03:31;;;;;;;4.83;2.50;;;6.00;99.30;5.40;95603.00;;;;5023210;28;20207;-78
2021/12/24 13:06:20;;;;;;;5.67;2.67;;;5.90;99.60;6.20;95608.00;;;;5031097;28;20240;-77
2021/12/24 13:09:14;;;;;;;6.77;2.93;;;5.90;99.90;6.30;95606.00;;;;5024326;28;20216;-78
2021/12/24 13:12:08;;;;;;;6.27;3.23;;;6.20;99.90;6.20;95605.00;;;;5030171;28;20227;-78
2021/12/24 13:15:01;;;;;;;7.93;3.00;;;6.30;99.90;6.30;95613.00;;;;5031537;28;20200;-78
2021/12/24 13:17:50;;;;;;;4.63;2.43;;;6.40;99.90;6.50;95625.00;;;;5029489;28;20204;-77
2021/12/24 13:22:27;;;;;;;7.90;3.23;;;6.40;99.90;6.50;95613.00;;;;5033877;28;20340;-78
2021/12/24 13:23:59;;;;;;;5.73;3.93;;;6.40;99.90;6.10;95612.00;;;;5031147;28;20208;-78
2021/12/24 13:26:50;;;;;;;9.27;6.50;;;6.40;99.90;5.70;95616.00;;;;5029930;28;20259;-78
2021/12/24 13:29:39;;;;;;;12.90;6.27;;;6.20;99.90;5.40;95616.00;;;;5030916;28;20223;-76
2021/12/24 13:32:29;;;;;;;6.00;4.00;;;6.00;99.90;5.70;95621.00;;;;5040778;28;20277;-75
2021/12/24 13:35:21;;;;;;;4.80;2.97;;;6.00;99.90;6.00;95619.00;;;;5038167;28;20212;-77
2021/12/24 13:38:13;;;;;;;5.03;3.80;;;5.90;99.90;6.20;95629.00;;;;5031574;28;20723;-76
2021/12/24 13:41:05;;;;;;;4.83;4.13;;;6.00;99.90;6.00;95629.00;;;;5031672;28;20228;-76
2021/12/24 13:43:57;;;;;;;10.83;6.57;;;6.00;99.90;5.80;95621.00;;;;5024666;28;20637;-75
2021/12/24 13:47:07;;;;;;;8.47;4.07;;;6.00;99.90;5.40;95614.00;;;;5021946;28;20212;-75
2021/12/24 13:50:32;;;;;;;15.67;4.87;;;5.90;99.90;5.20;95615.00;;;;5022119;28;20601;-76
2021/12/24 13:56:48;;;;;;;13.37;8.40;;;5.60;99.90;5.50;95608.00;;;;5025447;28;20705;-76